createdAt,value
2022-07-27T00:01:26.123Z,82.45
2022-07-27T00:06:28.827Z,83.14
2022-07-27T00:11:31.564Z,83.86
2022-07-27T00:16:34.491Z,84.62
2022-07-27T00:21:44.462Z,85.21
2022-07-27T00:26:47.696Z,85.89
2022-07-27T00:31:50.462Z,86.58
2022-07-27T00:36:53.291Z,86.97
2022-07-27T00:41:56.141Z,87.13
2022-07-27T00:46:59.724Z,87.29
2022-07-27T00:52:02.677Z,87.49
2022-07-27T00:57:05.964Z,88.09
2022-07-27T01:02:12.126Z,88.76
2022-07-27T01:07:15.370Z,88.98
2022-07-27T01:12:19.280Z,88.95
2022-07-27T01:17:22.014Z,89.36
2022-07-27T01:22:24.745Z,90.13
2022-07-27T01:27:27.485Z,90.42
2022-07-27T01:32:30.932Z,90.70
2022-07-27T01:37:33.687Z,91.13
2022-07-27T01:42:36.461Z,91.84
2022-07-27T01:47:39.171Z,92.46
2022-07-27T01:52:41.900Z,93.48
2022-07-27T01:57:44.758Z,94.23
2022-07-27T02:02:47.507Z,95.25
2022-07-27T02:07:50.392Z,96.13
2022-07-27T02:12:53.240Z,96.61
2022-07-27T02:17:56.347Z,97.01
2022-07-27T02:22:59.061Z,97.41
2022-07-27T02:28:02.315Z,97.38
2022-07-27T02:33:06.075Z,97.54
2022-07-27T02:38:09.034Z,97.63
2022-07-27T02:43:13.038Z,97.54
2022-07-27T02:48:15.852Z,97.85
2022-07-27T02:53:18.674Z,98.23
2022-07-27T02:58:21.481Z,98.40
2022-07-27T03:03:24.255Z,98.64
2022-07-27T03:08:39.038Z,99.10
2022-07-27T03:13:42.243Z,99.03
2022-07-27T03:18:44.957Z,98.89
2022-07-27T03:23:47.711Z,98.58
2022-07-27T03:28:50.597Z,98.63
2022-07-27T03:33:53.311Z,99.05
2022-07-27T03:38:56.163Z,99.44
2022-07-27T03:43:58.877Z,99.57
2022-07-27T03:49:01.716Z,99.76
2022-07-27T03:54:17.990Z,100.00
2022-07-27T03:59:20.814Z,100.00
2022-07-27T04:04:23.553Z,100.00
2022-07-27T04:09:26.449Z,99.98
2022-07-27T04:14:30.722Z,99.99
2022-07-27T04:19:33.345Z,99.95
2022-07-27T04:24:36.088Z,99.62
2022-07-27T04:29:38.823Z,99.08
2022-07-27T04:34:41.548Z,98.63
2022-07-27T04:39:44.961Z,98.22
2022-07-27T04:44:47.626Z,97.55
2022-07-27T04:49:50.325Z,96.69
2022-07-27T04:54:54.068Z,96.41
2022-07-27T04:59:56.934Z,95.54
2022-07-27T05:05:00.566Z,94.76
2022-07-27T05:10:04.080Z,94.35
2022-07-27T05:15:07.188Z,93.38
2022-07-27T05:20:11.498Z,92.75
2022-07-27T05:25:14.345Z,92.36
2022-07-27T05:30:16.969Z,91.85
2022-07-27T05:35:20.429Z,90.75
2022-07-27T05:40:23.234Z,91.01
2022-07-27T05:45:26.396Z,90.92
2022-07-27T05:50:29.180Z,89.02
2022-07-27T05:55:31.924Z,86.42
2022-07-27T06:00:34.653Z,85.28
2022-07-27T06:05:37.393Z,85.28
2022-07-27T06:10:41.270Z,81.64
2022-07-27T06:15:44.039Z,80.95
2022-07-27T06:20:46.994Z,79.96
2022-07-27T06:25:50.391Z,78.60
2022-07-27T06:30:55.966Z,79.46
2022-07-27T06:36:01.404Z,78.18
2022-07-27T06:41:04.502Z,76.09
2022-07-27T06:46:07.898Z,74.98
2022-07-27T06:51:10.673Z,74.65
2022-07-27T06:56:13.401Z,71.30
2022-07-27T07:01:16.257Z,70.48
2022-07-27T07:06:19.091Z,68.99
2022-07-27T07:11:21.978Z,67.77
2022-07-27T07:16:24.790Z,67.07
2022-07-27T07:21:27.702Z,64.33
2022-07-27T07:26:31.684Z,63.97
2022-07-27T07:31:34.968Z,63.80
2022-07-27T07:36:37.884Z,63.62
2022-07-27T07:41:40.829Z,63.03
2022-07-27T07:46:47.293Z,61.24
2022-07-27T07:51:50.328Z,60.63
2022-07-27T07:56:53.049Z,59.99
2022-07-27T08:01:55.828Z,56.87
2022-07-27T08:06:58.860Z,57.57
2022-07-27T08:12:01.599Z,55.41
2022-07-27T08:17:04.423Z,55.18
2022-07-27T08:22:07.170Z,54.18
2022-07-27T08:27:10.390Z,53.18
2022-07-27T08:32:13.194Z,54.59
2022-07-27T08:37:15.999Z,54.09
2022-07-27T08:42:19.064Z,52.92
2022-07-27T08:47:22.886Z,51.10
2022-07-27T08:52:25.678Z,52.28
2022-07-27T08:57:28.432Z,52.00
2022-07-27T09:02:31.278Z,50.82
2022-07-27T09:07:34.211Z,49.42
2022-07-27T09:12:37.653Z,49.92
2022-07-27T09:17:48.463Z,50.03
2022-07-27T09:22:56.588Z,49.00
2022-07-27T09:28:00.121Z,48.46
2022-07-27T09:33:06.640Z,46.03
2022-07-27T09:38:23.820Z,46.50
2022-07-27T09:44:28.590Z,44.34
2022-07-27T09:48:49.496Z,44.87
2022-07-27T09:53:57.756Z,44.99
2022-07-27T09:59:04.895Z,44.47
2022-07-27T10:04:08.550Z,45.64
2022-07-27T10:09:11.421Z,47.47
2022-07-27T10:14:15.183Z,46.95
2022-07-27T10:19:20.257Z,47.07
2022-07-27T10:24:32.833Z,47.31
2022-07-27T10:29:38.966Z,46.58
2022-07-27T10:34:43.911Z,46.15
2022-07-27T10:40:17.192Z,45.23
2022-07-27T10:45:20.213Z,46.57
2022-07-27T10:50:26.854Z,47.44
2022-07-27T10:55:30.184Z,47.09
2022-07-27T11:00:55.707Z,45.90
2022-07-27T11:06:31.564Z,44.91
2022-07-27T11:11:29.439Z,43.98
2022-07-27T11:16:37.002Z,43.87
2022-07-27T11:21:52.579Z,40.29
2022-07-27T11:26:55.658Z,40.73
2022-07-27T11:32:00.797Z,40.26
2022-07-27T11:37:14.063Z,39.13
2022-07-27T11:42:18.794Z,38.52
2022-07-27T11:47:26.441Z,39.23
2022-07-27T11:52:29.265Z,38.32
2022-07-27T11:57:33.865Z,37.66
2022-07-27T12:02:36.712Z,37.35
2022-07-27T12:07:41.067Z,37.47
2022-07-27T12:12:49.181Z,37.50
2022-07-27T12:17:57.454Z,37.34
2022-07-27T12:23:06.118Z,36.26
2022-07-27T12:28:14.163Z,34.78
2022-07-27T12:33:30.420Z,34.07
2022-07-27T12:38:46.345Z,35.04
2022-07-27T12:44:04.293Z,37.11
2022-07-27T12:49:16.454Z,37.00
2022-07-27T12:54:19.848Z,37.51
2022-07-27T12:59:23.746Z,36.12
2022-07-27T13:04:26.542Z,34.98
2022-07-27T13:10:03.333Z,35.14
2022-07-27T13:14:52.887Z,35.28
2022-07-27T13:19:55.707Z,34.70
2022-07-27T13:24:58.474Z,34.28
2022-07-27T13:30:01.198Z,34.20
2022-07-27T13:35:05.226Z,33.44
2022-07-27T13:40:10.462Z,34.34
2022-07-27T13:45:13.389Z,35.26
2022-07-27T13:50:19.737Z,35.59
2022-07-27T13:55:27.981Z,36.56
2022-07-27T14:00:31.283Z,36.30
2022-07-27T14:05:34.863Z,35.01
2022-07-27T14:10:41.787Z,35.73
2022-07-27T14:15:50.715Z,36.15
2022-07-27T14:20:59.344Z,36.23
2022-07-27T14:26:05.398Z,36.17
2022-07-27T14:31:09.771Z,34.72
2022-07-27T14:36:13.433Z,31.64
2022-07-27T14:41:16.413Z,32.49
2022-07-27T14:46:19.292Z,33.58
2022-07-27T14:51:22.088Z,35.33
2022-07-27T14:56:24.851Z,36.36
2022-07-27T15:01:27.800Z,36.12
2022-07-27T15:06:35.278Z,35.89
2022-07-27T15:11:41.536Z,35.86
2022-07-27T15:16:46.238Z,36.74
2022-07-27T15:21:49.189Z,37.09
2022-07-27T15:26:51.952Z,37.79
2022-07-27T15:31:55.023Z,38.70
2022-07-27T15:36:57.994Z,39.08
2022-07-27T15:42:00.722Z,39.98
2022-07-27T15:47:04.259Z,40.15
2022-07-27T15:52:07.054Z,36.36
2022-07-27T15:57:10.533Z,32.16
2022-07-27T16:02:13.295Z,30.93
2022-07-27T16:07:16.925Z,30.54
2022-07-27T16:12:19.768Z,28.15
2022-07-27T16:17:22.471Z,30.10
2022-07-27T16:22:25.395Z,31.95
2022-07-27T16:27:28.747Z,34.13
2022-07-27T16:32:32.382Z,35.18
2022-07-27T16:37:35.109Z,36.22
2022-07-27T16:42:38.237Z,36.42
2022-07-27T16:47:41.112Z,36.56
2022-07-27T16:52:43.865Z,34.70
2022-07-27T16:57:46.631Z,32.58
2022-07-27T17:02:49.487Z,33.29
2022-07-27T17:07:54.375Z,35.60
2022-07-27T17:12:58.154Z,36.93
2022-07-27T17:18:01.779Z,38.55
2022-07-27T17:23:04.748Z,40.44
2022-07-27T17:28:07.803Z,41.37
2022-07-27T17:33:10.618Z,41.74
2022-07-27T17:38:14.739Z,41.97
2022-07-27T17:43:17.484Z,43.92
2022-07-27T17:48:20.624Z,45.11
2022-07-27T17:53:23.666Z,46.78
2022-07-27T17:58:30.151Z,47.99
2022-07-27T18:03:34.936Z,49.27
2022-07-27T18:08:38.822Z,50.71
2022-07-27T18:13:42.566Z,51.86
2022-07-27T18:18:45.662Z,53.42
2022-07-27T18:23:48.433Z,54.65
2022-07-27T18:28:52.801Z,56.31
2022-07-27T18:33:56.107Z,56.45
2022-07-27T18:38:58.873Z,56.80
2022-07-27T18:44:01.464Z,57.11
2022-07-27T18:49:05.197Z,57.93
2022-07-27T18:54:08.114Z,58.05
2022-07-27T18:59:11.106Z,58.06
2022-07-27T19:04:15.852Z,59.02
2022-07-27T19:09:19.345Z,60.11
2022-07-27T19:14:23.226Z,60.37
2022-07-27T19:19:26.389Z,60.67
2022-07-27T19:24:29.315Z,61.07
2022-07-27T19:29:32.491Z,61.56
2022-07-27T19:34:38.728Z,62.38
2022-07-27T19:39:57.339Z,62.58
2022-07-27T19:45:04.774Z,62.81
2022-07-27T19:50:07.735Z,62.80
2022-07-27T19:55:10.467Z,63.36
2022-07-27T20:00:13.863Z,63.95
2022-07-27T20:05:16.731Z,63.98
2022-07-27T20:10:21.677Z,64.47
2022-07-27T20:15:24.733Z,64.42
2022-07-27T20:20:28.103Z,64.41
2022-07-27T20:25:30.829Z,64.46
2022-07-27T20:30:33.916Z,64.78
2022-07-27T20:35:39.211Z,65.31
2022-07-27T20:40:41.965Z,66.13
2022-07-27T20:45:44.756Z,66.54
2022-07-27T20:50:47.556Z,66.90
2022-07-27T20:55:50.273Z,67.52
2022-07-27T21:00:53.104Z,67.50
2022-07-27T21:05:55.998Z,67.80
2022-07-27T21:10:58.734Z,68.10
2022-07-27T21:16:01.508Z,68.24
2022-07-27T21:21:04.267Z,68.04
2022-07-27T21:26:07.015Z,68.01
2022-07-27T21:31:10.316Z,67.92
2022-07-27T21:36:12.924Z,68.26
2022-07-27T21:41:15.732Z,68.37
2022-07-27T21:46:18.605Z,68.60
2022-07-27T21:51:21.617Z,68.81
2022-07-27T21:56:24.772Z,69.10
2022-07-27T22:01:27.796Z,69.51
2022-07-27T22:06:30.564Z,69.54
2022-07-27T22:11:33.827Z,69.72
2022-07-27T22:16:36.683Z,69.42
2022-07-27T22:21:39.304Z,69.07
2022-07-27T22:26:41.994Z,68.99
2022-07-27T22:31:44.795Z,68.81
2022-07-27T22:36:47.609Z,68.86
2022-07-27T22:41:50.343Z,69.03
2022-07-27T22:46:53.543Z,68.93
2022-07-27T22:51:57.128Z,69.19
2022-07-27T22:57:00.280Z,69.27
2022-07-27T23:02:04.646Z,69.53
2022-07-27T23:07:07.458Z,69.55
2022-07-27T23:12:10.180Z,69.72
2022-07-27T23:17:12.922Z,69.96
2022-07-27T23:22:17.125Z,70.15
2022-07-27T23:27:20.129Z,70.26
2022-07-27T23:32:22.879Z,70.37
2022-07-27T23:37:25.775Z,70.11
2022-07-27T23:42:29.176Z,70.28
2022-07-27T23:47:31.891Z,70.16
2022-07-27T23:52:34.686Z,70.30
2022-07-27T23:57:37.411Z,71.12
